首页
METAR-TAF:

METAR-TAF

机场 :

New River Valley Airport

都柏林, 弗吉尼亚州, 美国

纬度: 37-08N, 经度: 080-41W, 海拔: 642米

当前天气观测

该预报发布于20分钟前的11:10 UTC
风速4节,风向西转西北
温度 0°C
湿度 93%
气压 1024 hPa
能見度: 16.1公里
天空无云

METAR: KPSK 171110Z AUTO 29004KT 10SM CLR 00/M01 A3023 RMK AO2 T10041007

时间: 06:30 (11:30 UTC)


TAF: 丢失

超过4000个机场的气象观测和天气预报(METAR&TAF报告)。

可查询的气象台以黄色和红色小点在地图上表示。

将鼠标移到小点上方,可查看气象台名称。

然后点击查看天气观测和预报。

如需切换地图:点击带黑十字的绿色按钮放大地图;点击带横线的绿色按钮缩小地图;或者点击绿色箭头查看邻近地区的地图。


METAR-TAF: